Time;durP1;ratioP1;P1;durP2;ratioP2;P2;SDS_P1;SDS_P2;PMS_P1;PMS_P2;Temp;Humidity;BMP_temperature;BMP_pressure;BME280_temperature;BME280_humidity;BME280_pressure;Samples;Min_cycle;Max_cycle;Signal;HPM_P1;HPM_P2
2022/07/09 00:01:32;;;;;;;14.35;10.60;;;;;;;18.38;68.68;102797.13;5019224;28;20192;-56
2022/07/09 00:03:58;;;;;;;13.95;10.55;;;;;;;18.29;68.63;102789.88;5019791;28;20251;-55
2022/07/09 00:06:23;;;;;;;14.55;11.00;;;;;;;18.25;68.76;102794.19;5021249;28;20315;-55
2022/07/09 00:08:48;;;;;;;14.95;11.82;;;;;;;18.25;68.68;102783.66;5019238;28;20030;-55
2022/07/09 00:11:14;;;;;;;15.40;11.93;;;;;;;18.23;68.65;102789.72;5016169;28;20061;-55
2022/07/09 00:13:39;;;;;;;15.38;11.52;;;;;;;18.19;68.94;102791.44;5019596;28;20219;-55
2022/07/09 00:16:04;;;;;;;16.20;11.77;;;;;;;18.16;69.07;102785.16;5022563;28;20331;-56
2022/07/09 00:18:30;;;;;;;15.55;12.23;;;;;;;18.15;69.26;102794.84;5023216;28;20048;-55
2022/07/09 00:20:55;;;;;;;16.40;12.60;;;;;;;18.15;68.94;102793.97;5024385;28;20026;-55
2022/07/09 00:23:21;;;;;;;17.13;11.82;;;;;;;18.09;69.07;102789.44;5025753;28;20053;-56
2022/07/09 00:25:46;;;;;;;14.77;11.63;;;;;;;18.03;69.09;102786.63;5024198;28;20089;-55
2022/07/09 00:28:11;;;;;;;15.15;11.73;;;;;;;18.01;69.10;102781.31;5024598;28;20410;-56
2022/07/09 00:30:37;;;;;;;14.18;11.10;;;;;;;17.99;68.60;102790.06;5023543;28;20030;-55
2022/07/09 00:33:02;;;;;;;15.25;11.63;;;;;;;17.96;68.98;102787.34;5025325;28;20021;-55
2022/07/09 00:35:27;;;;;;;13.77;11.15;;;;;;;17.91;69.28;102784.59;5025242;28;20296;-56
2022/07/09 00:37:53;;;;;;;13.18;11.70;;;;;;;17.86;69.34;102783.56;5024745;28;20018;-56
2022/07/09 00:40:18;;;;;;;12.95;11.23;;;;;;;17.83;69.08;102787.03;5023423;28;20056;-55
2022/07/09 00:42:43;;;;;;;15.02;11.55;;;;;;;17.80;69.58;102786.94;5025362;28;20079;-55
2022/07/09 00:45:09;;;;;;;17.08;12.80;;;;;;;17.76;69.53;102782.44;5024946;28;20154;-55
2022/07/09 00:47:34;;;;;;;13.57;11.60;;;;;;;17.72;69.60;102777.94;5024820;28;20030;-55
2022/07/09 00:50:00;;;;;;;15.52;11.95;;;;;;;17.68;69.50;102782.25;5020153;28;20042;-55
2022/07/09 00:52:26;;;;;;;14.30;11.50;;;;;;;17.66;69.94;102783.06;5023834;28;20189;-55
2022/07/09 00:54:51;;;;;;;14.95;11.68;;;;;;;17.63;69.46;102785.63;5024854;28;20026;-55
2022/07/09 00:57:19;;;;;;;15.57;11.70;;;;;;;17.56;69.59;102785.44;5024185;28;20036;-56
2022/07/09 00:59:45;;;;;;;15.23;11.53;;;;;;;17.53;69.84;102787.13;5024219;28;20103;-55
2022/07/09 01:02:10;;;;;;;15.57;11.48;;;;;;;17.49;69.45;102783.50;5025050;28;20268;-55
2022/07/09 01:04:37;;;;;;;18.08;12.50;;;;;;;17.44;70.39;102779.88;5024130;28;20061;-56
2022/07/09 01:07:03;;;;;;;16.90;12.27;;;;;;;17.42;70.40;102792.09;5020781;28;20026;-56
2022/07/09 01:09:29;;;;;;;16.45;12.15;;;;;;;17.37;69.72;102786.72;5022985;28;20093;-56
2022/07/09 01:11:55;;;;;;;22.45;13.23;;;;;;;17.35;69.92;102776.97;5022758;28;20022;-57
2022/07/09 01:14:20;;;;;;;16.35;12.80;;;;;;;17.32;70.50;102780.44;5025133;28;20033;-56
2022/07/09 01:16:45;;;;;;;15.27;12.38;;;;;;;17.32;70.57;102772.53;5023660;28;20096;-56
2022/07/09 01:19:11;;;;;;;18.42;12.80;;;;;;;17.27;71.16;102779.41;5024617;28;20084;-56
2022/07/09 01:21:36;;;;;;;18.85;13.38;;;;;;;17.26;70.91;102766.22;5024364;28;20022;-56
2022/07/09 01:24:02;;;;;;;18.88;13.43;;;;;;;17.25;70.75;102765.31;5022155;28;20196;-56
2022/07/09 01:26:28;;;;;;;19.98;13.13;;;;;;;17.18;71.66;102766.91;5018745;28;20022;-56
2022/07/09 01:28:53;;;;;;;17.35;14.00;;;;;;;17.24;71.08;102768.81;5023667;28;20075;-56
2022/07/09 01:31:19;;;;;;;19.73;15.10;;;;;;;17.21;71.58;102759.06;5023835;28;20081;-56
2022/07/09 01:33:45;;;;;;;20.50;14.63;;;;;;;17.16;72.33;102751.88;5022773;28;20034;-56
2022/07/09 01:36:10;;;;;;;25.38;16.92;;;;;;;17.15;72.99;102753.63;5022563;28;20110;-55
2022/07/09 01:38:36;;;;;;;20.15;15.77;;;;;;;17.15;72.98;102753.63;5024379;28;20058;-55
2022/07/09 01:41:02;;;;;;;29.23;16.70;;;;;;;17.15;72.55;102744.84;5022102;28;20029;-55
2022/07/09 01:43:28;;;;;;;23.33;16.35;;;;;;;17.13;73.01;102747.47;5021994;28;20040;-54
2022/07/09 01:45:53;;;;;;;21.27;15.27;;;;;;;17.11;72.00;102746.50;5024520;28;20037;-55
2022/07/09 01:48:18;;;;;;;20.92;15.10;;;;;;;17.10;71.76;102739.44;5020555;28;20029;-56
2022/07/09 01:50:44;;;;;;;19.25;15.40;;;;;;;17.08;71.44;102749.06;5019231;28;20034;-55
2022/07/09 01:53:09;;;;;;;17.38;13.65;;;;;;;17.02;70.68;102743.63;5023981;28;20048;-55
2022/07/09 01:55:35;;;;;;;18.08;14.88;;;;;;;16.97;70.80;102740.84;5019881;28;20089;-55
2022/07/09 01:58:00;;;;;;;19.48;14.48;;;;;;;16.92;71.29;102745.09;5023747;28;20093;-56
2022/07/09 02:00:27;;;;;;;17.45;13.48;;;;;;;16.89;71.71;102745.03;5021027;28;20093;-55
2022/07/09 02:02:53;;;;;;;24.80;14.80;;;;;;;16.86;71.04;102750.19;5022225;28;20112;-55
2022/07/09 02:05:20;;;;;;;16.80;14.05;;;;;;;16.82;71.77;102737.78;5021366;28;20105;-55
2022/07/09 02:07:46;;;;;;;15.18;13.50;;;;;;;16.82;71.88;102736.03;5022434;28;20021;-55
2022/07/09 02:10:12;;;;;;;15.32;12.30;;;;;;;16.78;72.63;102731.50;5020736;28;20080;-55
2022/07/09 02:12:37;;;;;;;16.98;14.05;;;;;;;16.72;72.41;102736.63;5023522;28;20284;-56
2022/07/09 02:15:06;;;;;;;19.27;15.00;;;;;;;16.73;72.35;102734.84;5020331;28;20029;-56
2022/07/09 02:17:32;;;;;;;18.42;14.63;;;;;;;16.72;72.37;102738.38;5018619;28;20022;-56
2022/07/09 02:19:57;;;;;;;18.38;14.20;;;;;;;16.67;72.38;102728.59;5022511;28;20093;-55
2022/07/09 02:22:22;;;;;;;17.63;14.88;;;;;;;16.63;72.02;102725.84;5022296;28;20046;-56
2022/07/09 02:24:48;;;;;;;21.95;15.82;;;;;;;16.61;71.48;102722.25;5022030;28;20212;-56
2022/07/09 02:27:13;;;;;;;19.88;14.70;;;;;;;16.60;71.85;102728.38;5022406;28;20056;-55
2022/07/09 02:29:39;;;;;;;18.10;14.23;;;;;;;16.56;71.99;102723.88;5016025;28;20098;-56
2022/07/09 02:32:05;;;;;;;20.10;14.57;;;;;;;16.55;72.10;102732.59;5022250;28;20265;-56
2022/07/09 02:34:30;;;;;;;20.95;14.82;;;;;;;16.48;72.78;102726.25;5023857;28;20048;-56
2022/07/09 02:36:55;;;;;;;18.80;14.98;;;;;;;16.42;72.09;102724.34;5020677;28;20026;-56
2022/07/09 02:39:21;;;;;;;21.48;14.90;;;;;;;16.40;71.71;102723.41;5021178;28;20112;-57
2022/07/09 02:41:46;;;;;;;20.10;15.30;;;;;;;16.34;71.80;102718.84;5023469;28;20076;-57
2022/07/09 02:44:11;;;;;;;22.42;15.25;;;;;;;16.32;71.50;102717.00;5018535;28;20021;-57
2022/07/09 02:46:36;;;;;;;19.70;15.07;;;;;;;16.31;72.05;102717.88;5022924;28;20045;-57
2022/07/09 02:49:03;;;;;;;18.23;14.68;;;;;;;16.28;71.93;102718.69;5020158;28;20324;-57
2022/07/09 02:51:28;;;;;;;19.35;14.63;;;;;;;16.24;72.74;102716.78;5021538;28;20079;-56
2022/07/09 02:53:54;;;;;;;21.42;15.23;;;;;;;16.23;72.54;102711.50;5021215;28;20041;-57
2022/07/09 02:56:19;;;;;;;19.88;15.05;;;;;;;16.19;72.32;102704.34;5023525;28;20061;-57
2022/07/09 02:58:44;;;;;;;20.38;16.25;;;;;;;16.11;73.25;102705.00;5019777;28;21131;-57
2022/07/09 03:01:10;;;;;;;19.10;15.32;;;;;;;16.12;72.53;102700.63;5018642;28;20260;-57
2022/07/09 03:03:36;;;;;;;21.17;16.60;;;;;;;16.11;73.06;102704.13;5022355;28;20060;-57
2022/07/09 03:06:02;;;;;;;22.13;16.83;;;;;;;16.11;73.18;102706.75;5021669;28;20034;-57
2022/07/09 03:08:28;;;;;;;26.27;18.95;;;;;;;16.13;73.55;102705.97;5015353;28;20037;-57
2022/07/09 03:10:53;;;;;;;24.77;18.35;;;;;;;16.13;73.95;102700.72;5020243;28;21145;-57
2022/07/09 03:13:18;;;;;;;29.40;19.70;;;;;;;16.11;74.84;102699.75;5021615;28;20162;-57
2022/07/09 03:15:44;;;;;;;25.55;19.45;;;;;;;16.14;75.17;102705.09;5022529;28;20033;-57
2022/07/09 03:18:09;;;;;;;23.27;17.08;;;;;;;16.19;74.15;102706.97;5021454;28;20076;-57
2022/07/09 03:20:35;;;;;;;23.10;17.27;;;;;;;16.15;73.53;102703.38;5021626;28;20269;-56
2022/07/09 03:23:02;;;;;;;22.45;15.63;;;;;;;16.11;72.97;102702.38;5021863;28;20092;-57
2022/07/09 03:25:27;;;;;;;19.67;15.32;;;;;;;16.07;72.86;102708.38;5019217;28;20053;-56
2022/07/09 03:27:54;;;;;;;22.15;16.13;;;;;;;16.05;73.02;102703.91;5021781;28;20261;-57
2022/07/09 03:30:19;;;;;;;20.63;16.02;;;;;;;16.02;72.91;102703.81;5015755;28;20083;-57
2022/07/09 03:32:44;;;;;;;22.55;16.25;;;;;;;15.97;73.17;102701.06;5021825;28;20172;-57
2022/07/09 03:35:10;;;;;;;21.15;15.55;;;;;;;15.95;72.88;102705.38;5020103;28;20261;-56
2022/07/09 03:37:35;;;;;;;20.70;15.32;;;;;;;15.94;72.98;102711.47;5021814;28;20377;-57
2022/07/09 03:40:02;;;;;;;21.77;16.45;;;;;;;15.93;72.46;102704.44;5020944;28;20060;-57
2022/07/09 03:42:27;;;;;;;20.95;16.20;;;;;;;15.91;72.99;102704.38;5021505;28;20030;-57
2022/07/09 03:44:52;;;;;;;20.40;15.57;;;;;;;15.85;73.13;102706.81;5020684;28;20026;-57
2022/07/09 03:47:18;;;;;;;19.88;16.02;;;;;;;15.85;72.97;102705.94;5020871;28;20105;-57
2022/07/09 03:49:43;;;;;;;21.45;16.58;;;;;;;15.83;72.74;102703.28;5018395;28;20022;-57
2022/07/09 03:52:08;;;;;;;19.38;15.43;;;;;;;15.81;73.05;102703.22;5014631;28;20040;-57
2022/07/09 03:54:34;;;;;;;20.92;15.02;;;;;;;15.76;73.48;102696.88;5021367;28;20325;-57
2022/07/09 03:56:59;;;;;;;21.52;16.08;;;;;;;15.75;73.65;102695.09;5020771;28;20026;-57
2022/07/09 03:59:24;;;;;;;20.98;16.17;;;;;;;15.74;74.03;102698.59;5020140;28;20204;-57
2022/07/09 04:01:49;;;;;;;22.45;16.55;;;;;;;15.73;73.48;102703.75;5018428;28;20038;-56
2022/07/09 04:04:15;;;;;;;24.70;17.27;;;;;;;15.74;74.36;102697.66;5020681;28;20042;-57
2022/07/09 04:06:40;;;;;;;21.70;16.17;;;;;;;15.72;74.63;102695.00;5020800;28;20180;-56
2022/07/09 04:09:06;;;;;;;26.58;18.08;;;;;;;15.71;75.04;102695.81;5021072;28;20026;-55
2022/07/09 04:11:31;;;;;;;25.58;19.08;;;;;;;15.68;75.73;102692.22;5020681;28;20030;-56
2022/07/09 04:13:58;;;;;;;23.45;18.55;;;;;;;15.67;75.19;102693.06;5019012;28;20037;-56
2022/07/09 04:16:23;;;;;;;26.52;18.42;;;;;;;15.65;75.35;102693.00;5020583;28;20092;-55
2022/07/09 04:18:49;;;;;;;29.33;18.88;;;;;;;15.62;75.44;102692.91;5023259;28;20030;-55
2022/07/09 04:21:14;;;;;;;28.02;18.88;;;;;;;15.64;75.08;102694.75;5019431;28;20033;-55
2022/07/09 04:23:39;;;;;;;31.35;20.60;;;;;;;15.65;75.59;102691.25;5017212;28;20029;-55
2022/07/09 04:26:05;;;;;;;36.40;23.45;;;;;;;15.67;76.67;102678.19;5018919;28;20272;-55
2022/07/09 04:28:30;;;;;;;37.78;25.77;;;;;;;15.69;77.96;102676.50;5015567;28;20037;-55
2022/07/09 04:30:55;;;;;;;33.75;25.45;;;;;;;15.71;77.66;102685.31;5021222;28;20038;-55
2022/07/09 04:33:21;;;;;;;37.72;25.45;;;;;;;15.72;77.47;102687.09;5022136;28;20042;-55
2022/07/09 04:35:46;;;;;;;42.60;26.33;;;;;;;15.74;76.68;102688.06;5020479;28;20032;-55
2022/07/09 04:38:12;;;;;;;39.53;26.13;;;;;;;15.76;77.83;102690.75;5020408;28;20230;-55
2022/07/09 04:40:38;;;;;;;45.78;28.20;;;;;;;15.77;77.97;102690.78;5020128;28;20025;-55
2022/07/09 04:43:04;;;;;;;43.75;28.77;;;;;;;15.80;78.97;102690.00;5021649;28;20021;-56
2022/07/09 04:45:31;;;;;;;48.97;29.80;;;;;;;15.82;79.08;102686.59;5021088;28;20278;-56
2022/07/09 04:47:58;;;;;;;43.70;29.15;;;;;;;15.85;79.63;102684.91;5013774;28;20051;-57
2022/07/09 04:50:23;;;;;;;47.17;30.13;;;;;;;15.87;79.60;102683.22;5021234;28;20026;-56
2022/07/09 04:52:49;;;;;;;47.35;30.23;;;;;;;15.91;79.71;102693.88;5020109;28;20033;-57
2022/07/09 04:55:16;;;;;;;49.78;30.95;;;;;;;15.94;80.32;102693.09;5020213;28;20088;-57
2022/07/09 04:57:42;;;;;;;52.63;31.52;;;;;;;15.96;80.72;102688.75;5019331;28;20026;-57
2022/07/09 05:00:08;;;;;;;56.60;32.75;;;;;;;16.00;80.77;102685.38;5017421;28;20030;-57
2022/07/09 05:02:33;;;;;;;50.92;32.05;;;;;;;16.04;80.92;102681.13;5020446;28;20029;-57
2022/07/09 05:04:58;;;;;;;52.78;32.63;;;;;;;16.07;81.24;102675.94;5023253;28;20046;-57
2022/07/09 05:07:24;;;;;;;57.28;34.80;;;;;;;16.09;81.63;102675.16;5021077;28;20076;-57
2022/07/09 05:09:49;;;;;;;60.58;35.65;;;;;;;16.12;82.89;102680.50;5021500;28;20079;-57
2022/07/09 05:12:14;;;;;;;63.03;34.92;;;;;;;16.17;82.36;102684.16;5022020;28;20053;-56
2022/07/09 05:14:40;;;;;;;63.13;35.75;;;;;;;16.20;83.04;102683.34;5024498;28;20053;-57
2022/07/09 05:17:05;;;;;;;60.13;34.85;;;;;;;16.24;82.88;102684.34;5021459;28;20025;-56
2022/07/09 05:19:32;;;;;;;64.57;37.20;;;;;;;16.26;82.83;102680.00;5024578;28;20022;-55
2022/07/09 05:21:57;;;;;;;62.97;36.42;;;;;;;16.28;83.21;102684.47;5023110;28;20026;-56
2022/07/09 05:24:23;;;;;;;57.80;35.95;;;;;;;16.32;82.63;102674.94;5021505;28;20172;-56
2022/07/09 05:26:48;;;;;;;62.90;36.55;;;;;;;16.34;82.45;102681.16;5020999;28;20589;-56
2022/07/09 05:29:14;;;;;;;61.72;36.47;;;;;;;16.38;82.38;102676.84;5021746;28;20026;-56
2022/07/09 05:31:40;;;;;;;62.88;36.13;;;;;;;16.40;82.50;102683.94;5022609;28;20030;-56
2022/07/09 05:34:05;;;;;;;61.78;36.83;;;;;;;16.42;82.29;102679.59;5024338;28;20148;-56
2022/07/09 05:36:31;;;;;;;63.22;37.22;;;;;;;16.46;82.47;102681.47;5022340;28;20034;-56
2022/07/09 05:38:58;;;;;;;65.55;37.38;;;;;;;16.48;82.38;102677.16;5023286;28;20021;-56
2022/07/09 05:41:24;;;;;;;63.15;35.72;;;;;;;16.51;82.96;102679.88;5023151;28;20034;-56
2022/07/09 05:43:50;;;;;;;64.10;37.13;;;;;;;16.54;83.36;102684.34;5020931;28;20272;-56
2022/07/09 05:46:16;;;;;;;60.25;36.10;;;;;;;16.57;83.39;102680.88;5017305;28;20025;-57
2022/07/09 05:48:41;;;;;;;64.18;36.95;;;;;;;16.60;83.00;102681.88;5022968;28;20101;-57
2022/07/09 05:51:06;;;;;;;73.13;38.08;;;;;;;16.60;83.73;102678.38;5022017;28;20034;-57
2022/07/09 05:53:31;;;;;;;64.00;36.75;;;;;;;16.61;82.88;102670.53;5020251;28;20303;-57
2022/07/09 05:55:57;;;;;;;69.03;38.35;;;;;;;16.66;82.95;102675.91;5023795;28;20089;-57
2022/07/09 05:58:22;;;;;;;70.07;39.65;;;;;;;16.69;83.19;102673.34;5021677;28;20030;-57
2022/07/09 06:00:47;;;;;;;69.53;39.88;;;;;;;16.73;83.02;102671.69;5022559;28;20029;-57
2022/07/09 06:03:13;;;;;;;73.60;41.15;;;;;;;16.76;83.67;102675.31;5021175;28;20026;-57
2022/07/09 06:05:38;;;;;;;74.07;41.85;;;;;;;16.80;84.34;102669.28;5022157;28;20052;-57
2022/07/09 06:08:04;;;;;;;73.82;42.40;;;;;;;16.84;83.44;102663.25;5021588;28;20276;-57
2022/07/09 06:10:29;;;;;;;84.20;45.17;;;;;;;16.88;84.04;102660.72;5022125;28;20017;-57
2022/07/09 06:12:54;;;;;;;76.30;42.60;;;;;;;16.93;84.24;102675.81;5020740;28;20030;-57
2022/07/09 06:15:20;;;;;;;74.47;42.00;;;;;;;16.97;84.20;102682.03;5022869;28;20356;-57
2022/07/09 06:17:45;;;;;;;77.82;43.83;;;;;;;16.99;84.20;102685.63;5023456;28;20026;-56
2022/07/09 06:20:11;;;;;;;76.68;44.22;;;;;;;17.02;84.81;102683.06;5022904;28;20232;-56
2022/07/09 06:22:38;;;;;;;76.45;43.28;;;;;;;17.04;83.43;102681.34;5021316;28;20085;-56
2022/07/09 06:25:04;;;;;;;74.68;43.05;;;;;;;17.08;83.16;102683.22;5022219;28;20013;-56
2022/07/09 06:27:30;;;;;;;74.68;41.47;;;;;;;17.13;83.13;102688.59;5019425;28;20050;-56
2022/07/09 06:29:55;;;;;;;79.70;42.53;;;;;;;17.17;83.54;102693.09;5022785;28;20068;-56
2022/07/09 06:32:20;;;;;;;73.07;42.22;;;;;;;17.21;82.71;102687.06;5022868;28;20339;-56
2022/07/09 06:34:46;;;;;;;73.28;43.97;;;;;;;17.24;82.38;102689.75;5023418;28;20033;-56
2022/07/09 06:37:11;;;;;;;77.32;43.30;;;;;;;17.27;83.21;102689.84;5022377;28;20040;-55
2022/07/09 06:39:45;;;;;;;76.15;41.05;;;;;;;17.30;81.86;102682.00;5022891;28;20029;-57
2022/07/09 06:42:12;;;;;;;73.05;42.78;;;;;;;17.34;82.50;102683.00;5022297;28;20154;-56
2022/07/09 06:44:38;;;;;;;70.38;41.65;;;;;;;17.37;82.73;102681.31;5022859;28;20014;-56
2022/07/09 06:47:04;;;;;;;68.28;39.90;;;;;;;17.44;82.55;102682.38;5022986;28;20032;-57
2022/07/09 06:49:30;;;;;;;72.97;43.90;;;;;;;17.53;84.26;102686.97;5021284;28;20034;-57
2022/07/09 06:51:56;;;;;;;73.90;46.20;;;;;;;17.59;83.42;102683.59;5021487;28;20299;-57
2022/07/09 06:54:21;;;;;;;64.90;40.13;;;;;;;17.62;82.54;102686.31;5017706;28;20317;-56
2022/07/09 06:56:47;;;;;;;66.82;40.80;;;;;;;17.65;82.89;102683.72;5021423;28;20050;-57
2022/07/09 06:59:13;;;;;;;67.70;41.00;;;;;;;17.69;82.45;102677.69;5019235;28;20030;-57
2022/07/09 07:01:38;;;;;;;71.15;41.58;;;;;;;17.73;84.78;102675.16;5022198;28;20065;-57
2022/07/09 07:04:04;;;;;;;67.20;39.20;;;;;;;17.79;82.82;102695.50;5021122;28;20026;-57
2022/07/09 07:06:29;;;;;;;64.28;39.20;;;;;;;17.86;82.96;102692.16;5017988;28;20033;-57
2022/07/09 07:08:54;;;;;;;63.30;38.65;;;;;;;17.93;82.53;102693.22;5019508;28;20037;-57
2022/07/09 07:11:20;;;;;;;61.42;38.30;;;;;;;17.99;82.58;102684.56;5018653;28;20033;-57
2022/07/09 07:13:45;;;;;;;61.33;38.70;;;;;;;18.02;81.28;102685.50;5018645;28;20266;-57
2022/07/09 07:16:10;;;;;;;64.15;39.92;;;;;;;18.09;82.01;102694.47;5025368;28;20076;-56
2022/07/09 07:18:36;;;;;;;58.92;36.35;;;;;;;18.14;81.63;102686.63;5026334;28;20097;-54
2022/07/09 07:21:01;;;;;;;60.00;36.95;;;;;;;18.18;81.04;102681.47;5023206;28;20029;-55
2022/07/09 07:23:26;;;;;;;62.97;39.20;;;;;;;18.23;82.06;102685.09;5030233;28;20034;-55
2022/07/09 07:25:51;;;;;;;60.80;36.28;;;;;;;18.29;81.44;102681.66;5021559;28;20026;-55
2022/07/09 07:28:17;;;;;;;55.95;34.08;;;;;;;18.34;81.52;102684.44;5020886;28;20068;-56
2022/07/09 07:30:42;;;;;;;60.22;34.42;;;;;;;18.42;82.29;102683.72;5021075;28;20150;-55
2022/07/09 07:33:07;;;;;;;52.97;33.95;;;;;;;18.46;81.21;102687.31;5022053;28;20056;-56
2022/07/09 07:35:33;;;;;;;53.67;31.73;;;;;;;18.49;80.63;102687.38;5021616;28;20026;-55
2022/07/09 07:38:01;;;;;;;56.40;33.92;;;;;;;18.56;81.45;102685.75;5018444;28;20172;-56
2022/07/09 07:40:26;;;;;;;54.40;33.85;;;;;;;18.59;80.73;102681.41;5020886;28;20033;-55
2022/07/09 07:42:52;;;;;;;54.97;34.28;;;;;;;18.67;81.76;102683.31;5019567;28;20029;-56
2022/07/09 07:45:17;;;;;;;55.88;33.05;;;;;;;18.68;79.66;102696.53;5015744;28;20065;-55
2022/07/09 07:47:42;;;;;;;52.78;32.25;;;;;;;18.73;80.02;102688.72;5016141;28;20038;-56
2022/07/09 07:50:08;;;;;;;54.85;31.30;;;;;;;18.81;82.37;102692.38;5018407;28;20044;-56
2022/07/09 07:52:33;;;;;;;53.47;31.08;;;;;;;18.84;80.95;102696.84;5017897;28;20025;-56
2022/07/09 07:54:59;;;;;;;53.85;31.67;;;;;;;18.88;80.69;102701.38;5015134;28;20033;-56
2022/07/09 07:57:24;;;;;;;51.20;29.67;;;;;;;18.92;81.08;102685.59;5021188;28;20037;-56
2022/07/09 07:59:49;;;;;;;46.67;28.63;;;;;;;19.00;80.57;102684.84;5015579;28;20113;-57
2022/07/09 08:02:15;;;;;;;53.15;31.17;;;;;;;19.03;80.30;102688.44;5016758;28;20909;-57
2022/07/09 08:04:40;;;;;;;49.67;29.38;;;;;;;19.06;79.71;102690.22;5017022;28;20107;-57
2022/07/09 08:07:05;;;;;;;48.83;29.88;;;;;;;19.08;79.84;102692.03;5016226;28;20129;-55
2022/07/09 08:09:32;;;;;;;48.25;28.63;;;;;;;19.11;78.58;102688.56;5015295;28;20018;-57
2022/07/09 08:11:58;;;;;;;55.45;30.85;;;;;;;19.13;78.43;102675.38;5014801;28;20041;-57
2022/07/09 08:14:23;;;;;;;48.83;28.45;;;;;;;19.14;78.18;102679.81;5015093;28;20176;-57
2022/07/09 08:16:49;;;;;;;50.22;31.63;;;;;;;19.17;77.82;102670.19;5018315;28;20031;-57
2022/07/09 08:19:15;;;;;;;52.35;32.70;;;;;;;19.19;77.90;102662.28;5015536;28;20046;-57
2022/07/09 08:21:41;;;;;;;54.90;31.02;;;;;;;19.21;77.67;102661.44;5014617;28;20026;-56
2022/07/09 08:24:07;;;;;;;55.03;33.83;;;;;;;19.26;77.85;102653.59;5015198;28;20041;-55
2022/07/09 08:26:32;;;;;;;54.10;32.35;;;;;;;19.29;77.91;102649.25;5018004;28;20189;-55
2022/07/09 08:28:58;;;;;;;54.85;33.85;;;;;;;19.34;77.26;102644.03;5028772;28;21488;-55
2022/07/09 08:31:24;;;;;;;53.50;32.83;;;;;;;19.42;78.11;102654.72;5019708;28;20045;-54
2022/07/09 08:33:50;;;;;;;51.67;31.15;;;;;;;19.47;75.58;102647.75;5021323;28;20350;-55
2022/07/09 08:36:16;;;;;;;51.53;31.73;;;;;;;19.53;76.65;102642.56;5014852;28;20184;-55
2022/07/09 08:38:42;;;;;;;52.20;31.10;;;;;;;19.63;76.94;102631.25;5024626;28;20280;-56
2022/07/09 08:41:07;;;;;;;50.63;31.20;;;;;;;19.74;77.38;102633.16;5021414;28;20033;-55
2022/07/09 08:43:34;;;;;;;52.95;30.73;;;;;;;19.86;76.06;102640.44;5019651;28;20030;-55
2022/07/09 08:46:00;;;;;;;47.33;28.88;;;;;;;19.94;75.45;102641.41;5019615;28;20209;-55
2022/07/09 08:48:25;;;;;;;44.42;27.13;;;;;;;19.99;74.93;102639.72;5020492;28;20384;-55
2022/07/09 08:50:52;;;;;;;48.78;28.83;;;;;;;20.04;75.62;102639.78;5016915;28;20036;-57
2022/07/09 08:53:19;;;;;;;48.25;28.60;;;;;;;20.09;74.20;102635.44;5022104;28;20260;-56
2022/07/09 08:55:47;;;;;;;43.70;28.60;;;;;;;20.13;74.34;102643.44;5023553;28;20212;-57
2022/07/09 08:58:14;;;;;;;50.92;28.58;;;;;;;20.22;75.10;102641.75;5026981;28;20056;-57
2022/07/09 09:00:40;;;;;;;47.65;29.55;;;;;;;20.23;74.78;102639.13;5030734;28;20096;-57
2022/07/09 09:03:06;;;;;;;48.33;29.83;;;;;;;20.28;75.04;102634.78;5027043;28;20095;-57
2022/07/09 09:05:31;;;;;;;49.67;30.08;;;;;;;20.30;73.68;102632.16;5023102;28;20048;-57
2022/07/09 09:07:57;;;;;;;46.05;27.65;;;;;;;20.32;75.97;102638.38;5026777;28;20055;-56
2022/07/09 09:10:24;;;;;;;53.88;31.45;;;;;;;20.39;74.13;102636.66;5028751;28;20026;-56
2022/07/09 09:12:56;;;;;;;46.42;29.75;;;;;;;20.37;73.85;102647.25;5034120;28;20037;-57
2022/07/09 09:15:22;;;;;;;51.72;29.85;;;;;;;20.38;73.45;102640.19;5026421;28;20021;-57
2022/07/09 09:17:47;;;;;;;43.60;28.08;;;;;;;20.40;73.22;102646.41;5025408;28;20068;-57
2022/07/09 09:20:14;;;;;;;45.60;27.73;;;;;;;20.40;72.62;102630.50;5025160;28;20046;-57
2022/07/09 09:23:09;;;;;;;45.25;27.80;;;;;;;20.39;72.97;102629.63;5024519;28;20064;-57
2022/07/09 09:25:34;;;;;;;40.90;25.63;;;;;;;20.41;73.19;102635.81;5025120;28;20097;-57
2022/07/09 09:28:00;;;;;;;37.78;25.27;;;;;;;20.42;73.86;102631.41;5023102;28;20022;-57
2022/07/09 09:30:29;;;;;;;44.55;28.52;;;;;;;20.45;73.49;102626.13;5021781;28;20049;-57
2022/07/09 09:33:02;;;;;;;48.95;30.05;;;;;;;20.43;73.76;102630.53;5021933;28;20292;-57
2022/07/09 09:35:29;;;;;;;44.50;27.65;;;;;;;20.45;72.76;102634.09;5024024;28;20137;-57
2022/07/09 09:37:56;;;;;;;42.88;27.00;;;;;;;20.43;72.29;102636.72;5023825;28;20018;-57
2022/07/09 09:40:23;;;;;;;39.05;27.73;;;;;;;20.43;72.27;102628.78;5023661;28;20296;-57
2022/07/09 09:42:49;;;;;;;38.33;27.05;;;;;;;20.43;72.62;102631.41;5023894;28;20014;-57
2022/07/09 09:45:15;;;;;;;37.55;25.60;;;;;;;20.43;72.66;102627.91;5023029;28;20026;-57
2022/07/09 09:47:49;;;;;;;45.38;31.73;;;;;;;20.43;72.52;102636.72;5023188;28;20042;-57
2022/07/09 09:50:25;;;;;;;43.28;28.73;;;;;;;20.40;72.02;102635.81;5023888;28;20041;-57
2022/07/09 09:52:52;;;;;;;38.53;28.38;;;;;;;20.40;72.62;102633.16;5021184;28;20026;-56
2022/07/09 09:55:20;;;;;;;39.75;26.80;;;;;;;20.41;74.39;102629.66;5024017;28;20282;-57
2022/07/09 09:57:46;;;;;;;44.03;29.10;;;;;;;20.42;74.52;102632.31;5024239;28;20046;-57
2022/07/09 10:00:13;;;;;;;42.70;28.15;;;;;;;20.45;74.05;102631.44;5024332;28;20177;-57
2022/07/09 10:02:44;;;;;;;41.45;29.10;;;;;;;20.44;73.23;102634.97;5027907;28;20121;-57
2022/07/09 10:05:09;;;;;;;43.78;30.40;;;;;;;20.46;73.95;102622.63;5017049;28;20038;-57
2022/07/09 10:07:35;;;;;;;45.25;31.80;;;;;;;20.48;73.66;102627.09;5027428;28;20040;-56
2022/07/09 10:10:00;;;;;;;46.78;30.15;;;;;;;20.53;74.35;102631.53;5033376;28;20022;-57
2022/07/09 10:12:32;;;;;;;54.47;35.20;;;;;;;20.56;75.39;102619.22;5029816;28;20037;-57
2022/07/09 10:14:57;;;;;;;51.17;34.83;;;;;;;20.63;75.63;102621.03;5017477;28;20032;-57
2022/07/09 10:17:24;;;;;;;49.55;34.08;;;;;;;20.71;75.33;102622.91;5024527;28;20034;-55
2022/07/09 10:19:54;;;;;;;43.10;29.80;;;;;;;20.73;73.69;102616.78;5025629;28;20029;-56
2022/07/09 10:22:21;;;;;;;43.42;29.55;;;;;;;20.75;74.21;102614.13;5030043;28;20176;-56
2022/07/09 10:24:50;;;;;;;42.45;31.05;;;;;;;20.78;74.76;102611.50;5021866;28;20382;-56
2022/07/09 10:27:16;;;;;;;31.55;22.83;;;;;;;20.80;75.05;102618.59;5021758;28;20185;-56
2022/07/09 10:29:54;;;;;;;31.95;21.08;;;;;;;20.82;74.94;102616.84;5020596;28;20030;-56
2022/07/09 10:32:26;;;;;;;27.27;18.83;;;;;;;20.88;74.43;102616.00;5024893;28;20080;-54
2022/07/09 10:34:58;;;;;;;23.50;15.20;;;;;;;20.91;73.46;102621.34;5019752;28;20109;-55
2022/07/09 10:37:43;;;;;;;21.77;15.65;;;;;;;20.96;72.55;102618.75;5024975;28;20037;-55
2022/07/09 10:40:12;;;;;;;21.35;14.60;;;;;;;20.94;71.51;102605.50;5023618;28;20025;-55
2022/07/09 10:42:38;;;;;;;21.90;16.27;;;;;;;20.94;72.04;102610.78;5022820;28;20181;-55
2022/07/09 10:45:19;;;;;;;21.90;14.70;;;;;;;20.97;73.06;102616.13;5026214;28;20097;-55
2022/07/09 10:47:47;;;;;;;18.70;13.23;;;;;;;21.04;74.93;102606.44;5021735;28;20045;-56
2022/07/09 10:50:12;;;;;;;21.25;14.63;;;;;;;21.17;73.49;102613.63;5030927;28;20031;-55
2022/07/09 10:52:38;;;;;;;18.20;12.73;;;;;;;21.29;73.97;102606.63;5027888;28;20059;-55
2022/07/09 10:55:03;;;;;;;14.30;8.85;;;;;;;21.44;72.25;102603.22;5022625;28;20048;-56
2022/07/09 10:57:29;;;;;;;16.15;9.75;;;;;;;21.57;69.74;102612.16;5005525;28;20084;-56
2022/07/09 10:59:54;;;;;;;14.98;9.50;;;;;;;21.76;73.13;102613.16;5019546;28;20026;-56
2022/07/09 11:02:22;;;;;;;13.88;9.57;;;;;;;21.85;71.50;102608.75;5020572;28;20057;-56
2022/07/09 11:04:52;;;;;;;13.27;9.80;;;;;;;21.95;71.82;102615.00;5020311;28;20033;-56